Time;durP1;ratioP1;P1;durP2;ratioP2;P2;SDS_P1;SDS_P2;PMS_P1;PMS_P2;Temp;Humidity;BMP_temperature;BMP_pressure;BME280_temperature;BME280_humidity;BME280_pressure;Samples;Min_cycle;Max_cycle;Signal;HPM_P1;HPM_P2
2022/08/18 00:01:31;;;;;;;6.45;1.40;;;;;;;17.13;71.31;100218.59;5019677;28;20088;-35
2022/08/18 00:03:59;;;;;;;8.10;1.60;;;;;;;17.11;71.34;100215.13;5008424;28;20046;-34
2022/08/18 00:06:29;;;;;;;5.93;1.10;;;;;;;17.13;71.08;100207.25;5016913;28;20053;-39
2022/08/18 00:08:58;;;;;;;3.33;0.88;;;;;;;17.11;71.67;100209.91;5015271;28;20046;-36
2022/08/18 00:11:26;;;;;;;3.80;1.35;;;;;;;17.11;70.76;100201.19;5013779;28;20061;-35
2022/08/18 00:14:12;;;;;;;4.97;1.20;;;;;;;17.11;70.95;100202.06;5008861;28;20050;-35
2022/08/18 00:16:50;;;;;;;6.80;1.20;;;;;;;17.12;71.31;100209.00;5015940;28;20050;-34
2022/08/18 00:19:19;;;;;;;2.75;0.80;;;;;;;17.12;71.91;100203.75;5010109;28;20084;-36
2022/08/18 00:22:09;;;;;;;9.82;1.73;;;;;;;17.13;71.84;100213.34;5019347;28;20800;-37
2022/08/18 00:24:44;;;;;;;7.75;1.48;;;;;;;17.12;71.42;100209.00;5029814;28;20062;-37
2022/08/18 00:27:20;;;;;;;7.93;1.42;;;;;;;17.12;70.95;100210.78;5017538;28;20056;-36
2022/08/18 00:29:51;;;;;;;6.13;1.25;;;;;;;17.11;71.18;100202.06;5021786;28;20104;-37
2022/08/18 00:32:23;;;;;;;4.95;1.05;;;;;;;17.12;71.45;100202.94;5009374;28;20447;-36
2022/08/18 00:34:53;;;;;;;6.25;1.45;;;;;;;17.13;71.33;100195.03;5013218;28;20057;-38
2022/08/18 00:37:22;;;;;;;8.75;1.50;;;;;;;17.13;71.05;100197.66;5012249;28;20983;-35
2022/08/18 00:39:52;;;;;;;2.10;1.33;;;;;;;17.12;71.40;100195.91;5016723;28;20056;-36
2022/08/18 00:42:24;;;;;;;9.45;1.50;;;;;;;17.13;71.19;100213.34;5008034;28;20050;-38
2022/08/18 00:45:00;;;;;;;9.27;1.20;;;;;;;17.10;71.42;100208.19;5018142;28;20057;-38
2022/08/18 00:47:28;;;;;;;4.35;1.10;;;;;;;17.13;71.35;100202.00;5003160;28;20156;-35
2022/08/18 00:50:17;;;;;;;10.10;1.20;;;;;;;17.13;71.07;100204.63;5012927;28;20057;-37
2022/08/18 00:52:51;;;;;;;3.85;0.98;;;;;;;17.13;70.85;100202.88;5006581;28;20046;-34
2022/08/18 00:55:20;;;;;;;4.03;1.20;;;;;;;17.14;71.12;100206.34;5015493;28;20476;-36
2022/08/18 00:57:52;;;;;;;4.95;1.13;;;;;;;17.15;70.99;100203.69;5006935;28;20119;-35
2022/08/18 01:00:21;;;;;;;3.10;1.15;;;;;;;17.16;70.88;100202.78;5008619;28;20129;-36
2022/08/18 01:02:54;;;;;;;6.93;1.20;;;;;;;17.17;71.11;100199.28;5009237;28;20042;-35
2022/08/18 01:05:39;;;;;;;6.85;1.33;;;;;;;17.15;71.18;100205.44;5006310;28;20054;-37
2022/08/18 01:08:10;;;;;;;6.35;2.85;;;;;;;17.19;71.15;100200.06;5014895;28;20602;-35
2022/08/18 01:10:39;;;;;;;2.70;1.10;;;;;;;17.18;71.08;100195.75;5011725;28;20041;-37
2022/08/18 01:13:06;;;;;;;6.72;1.15;;;;;;;17.17;70.91;100193.19;5015775;28;20041;-35
2022/08/18 01:15:34;;;;;;;15.05;1.85;;;;;;;17.17;70.51;100191.44;5018727;28;20053;-35
2022/08/18 01:23:34;;;;;;;5.43;1.30;;;;;;;17.20;70.73;100193.94;5041381;28;20423;-36
2022/08/18 01:26:03;;;;;;;7.25;1.35;;;;;;;17.21;70.81;100192.19;5021679;28;20061;-39
2022/08/18 01:31:09;;;;;;;7.32;1.98;;;;;;;17.20;70.78;100188.69;5080796;27;21141;-37
2022/08/18 01:33:40;;;;;;;4.00;2.72;;;;;;;17.20;70.73;100186.09;5043745;28;20103;-35
2022/08/18 01:36:19;;;;;;;8.35;2.00;;;;;;;17.15;70.95;100187.97;5058893;28;20099;-35
2022/08/18 01:38:49;;;;;;;8.70;2.28;;;;;;;17.18;70.75;100182.66;5052639;28;20049;-38
2022/08/18 01:41:20;;;;;;;10.20;2.38;;;;;;;17.17;71.20;100182.72;5056819;28;20110;-36
2022/08/18 01:43:54;;;;;;;4.18;1.83;;;;;;;17.13;71.35;100187.19;5045128;28;20135;-35
2022/08/18 01:46:22;;;;;;;8.73;2.30;;;;;;;17.13;71.14;100192.41;5048586;28;20155;-37
2022/08/18 01:48:50;;;;;;;6.88;2.50;;;;;;;17.15;71.11;100187.13;5044403;28;20045;-37
2022/08/18 01:51:18;;;;;;;6.57;2.00;;;;;;;17.17;71.55;100187.94;5049949;28;20049;-37
2022/08/18 01:53:45;;;;;;;9.00;2.60;;;;;;;17.17;71.68;100187.94;5051965;28;20049;-36
2022/08/18 01:56:13;;;;;;;9.20;2.17;;;;;;;17.14;71.69;100194.13;5054979;28;20174;-37
2022/08/18 01:58:39;;;;;;;7.47;2.58;;;;;;;17.13;70.92;100191.56;5052294;28;20068;-37
2022/08/18 02:01:06;;;;;;;7.45;1.90;;;;;;;17.12;70.92;100190.69;5046075;28;20046;-36
2022/08/18 02:03:35;;;;;;;5.70;2.45;;;;;;;17.12;71.13;100188.06;5041931;28;20065;-39
2022/08/18 02:06:06;;;;;;;6.97;2.33;;;;;;;17.13;71.59;100186.31;5040541;28;20060;-39
2022/08/18 02:08:33;;;;;;;5.90;2.92;;;;;;;17.13;71.67;100187.19;5035195;28;20598;-36
2022/08/18 02:11:00;;;;;;;8.13;2.28;;;;;;;17.12;71.39;100179.38;5047103;28;20060;-38
2022/08/18 02:13:27;;;;;;;7.20;1.88;;;;;;;17.10;71.27;100182.03;5054488;28;20127;-36
2022/08/18 02:15:53;;;;;;;5.93;2.22;;;;;;;17.12;72.01;100185.44;5052926;28;20102;-40
2022/08/18 02:18:26;;;;;;;7.53;1.80;;;;;;;17.13;71.91;100181.94;5050291;28;20049;-37
2022/08/18 02:21:16;;;;;;;6.40;1.08;;;;;;;17.12;71.21;100185.44;5051351;28;20411;-37
2022/08/18 02:23:45;;;;;;;12.05;2.20;;;;;;;17.10;71.74;100174.19;5054902;28;20045;-38
2022/08/18 02:26:19;;;;;;;8.05;2.30;;;;;;;17.09;71.80;100180.28;5052222;28;20044;-37
2022/08/18 02:28:46;;;;;;;6.28;2.38;;;;;;;17.06;71.66;100173.38;5058625;28;20455;-38
2022/08/18 02:31:16;;;;;;;8.60;2.60;;;;;;;17.07;71.67;100175.13;5059915;28;20096;-38
2022/08/18 02:33:44;;;;;;;6.63;2.42;;;;;;;17.07;71.90;100177.75;5046775;28;20496;-37
2022/08/18 02:36:17;;;;;;;5.63;2.42;;;;;;;17.08;71.90;100170.72;5040905;28;20103;-36
2022/08/18 02:38:44;;;;;;;11.02;2.95;;;;;;;17.08;72.19;100163.75;5053397;28;20056;-37
2022/08/18 02:41:21;;;;;;;10.13;2.97;;;;;;;17.09;72.49;100169.81;5043735;28;20092;-37
2022/08/18 02:43:48;;;;;;;10.13;2.47;;;;;;;17.09;71.71;100169.81;5031636;28;20045;-36
2022/08/18 02:46:15;;;;;;;7.35;2.38;;;;;;;17.10;72.10;100163.72;5030357;28;20041;-38
2022/08/18 02:48:42;;;;;;;8.50;2.08;;;;;;;17.09;72.56;100149.75;5040724;28;20396;-37
2022/08/18 02:51:12;;;;;;;9.07;2.88;;;;;;;17.09;72.16;100149.75;5030523;28;20057;-38
2022/08/18 02:53:41;;;;;;;6.18;2.85;;;;;;;17.11;72.38;100154.94;5029911;28;20056;-36
2022/08/18 02:58:56;;;;;;;12.10;2.15;;;;;;;17.08;72.28;100160.25;5063439;27;20418;-38
2022/08/18 03:01:26;;;;;;;9.60;2.30;;;;;;;17.08;71.97;100148.06;5047237;28;20049;-38
2022/08/18 03:03:56;;;;;;;9.63;2.78;;;;;;;17.09;72.61;100146.28;5047169;28;20631;-37
2022/08/18 03:06:23;;;;;;;7.60;2.15;;;;;;;17.08;72.17;100148.06;5054790;28;20095;-39
2022/08/18 03:08:51;;;;;;;7.68;2.40;;;;;;;17.07;72.36;100135.88;5074674;27;20052;-36
2022/08/18 03:11:21;;;;;;;7.65;2.20;;;;;;;17.08;72.39;100127.13;5067374;28;20102;-38
2022/08/18 03:13:47;;;;;;;5.72;1.90;;;;;;;17.07;72.38;100124.53;5073085;28;20060;-36
2022/08/18 03:16:15;;;;;;;4.40;2.13;;;;;;;17.07;72.46;100114.06;5072867;28;20044;-36
2022/08/18 03:18:44;;;;;;;15.90;2.30;;;;;;;17.05;73.06;100110.59;5068498;28;20052;-35
2022/08/18 03:21:15;;;;;;;6.68;2.00;;;;;;;17.06;72.45;100112.38;5082455;28;20044;-36
2022/08/18 03:23:42;;;;;;;10.63;2.53;;;;;;;17.04;72.22;100103.66;5077406;28;20048;-36
2022/08/18 03:26:27;;;;;;;12.25;2.85;;;;;;;17.05;72.65;100097.50;5082025;27;20144;-36
2022/08/18 03:28:54;;;;;;;11.90;3.40;;;;;;;17.04;72.72;100093.19;5128978;27;20692;-36
2022/08/18 03:31:24;;;;;;;4.53;2.00;;;;;;;17.05;72.82;100101.03;5114141;27;20050;-39
2022/08/18 03:33:55;;;;;;;13.77;2.22;;;;;;;17.02;72.40;100090.63;5123870;27;20040;-37
2022/08/18 03:36:28;;;;;;;9.10;2.28;;;;;;;17.02;72.73;100105.47;5114182;27;20051;-37
2022/08/18 03:38:55;;;;;;;6.18;2.05;;;;;;;16.99;73.22;100100.31;5090460;27;20052;-38
2022/08/18 03:41:24;;;;;;;10.52;2.00;;;;;;;16.98;72.90;100103.84;5128255;27;20494;-39
2022/08/18 03:44:13;;;;;;;10.60;2.30;;;;;;;16.95;72.61;100103.03;5135347;27;20087;-34
2022/08/18 03:46:43;;;;;;;12.80;2.15;;;;;;;16.95;73.14;100100.41;5128486;27;20096;-36
2022/08/18 03:49:10;;;;;;;7.03;2.65;;;;;;;16.95;72.72;100105.63;5130420;27;20055;-36
2022/08/18 03:51:38;;;;;;;10.32;2.50;;;;;;;16.94;73.13;100111.78;5131285;27;20043;-38
2022/08/18 03:54:05;;;;;;;13.43;2.08;;;;;;;16.96;73.27;100119.59;5110346;27;20074;-35
2022/08/18 03:56:36;;;;;;;7.00;1.90;;;;;;;16.95;72.99;100110.88;5107693;27;20083;-38
2022/08/18 03:59:08;;;;;;;8.57;1.95;;;;;;;16.99;72.85;100111.63;5104887;27;20044;-35
2022/08/18 04:01:38;;;;;;;8.65;1.92;;;;;;;17.02;72.36;100110.72;5105135;27;20081;-36
2022/08/18 04:04:08;;;;;;;9.43;2.60;;;;;;;17.03;72.86;100107.19;5106606;27;20042;-36
2022/08/18 04:06:40;;;;;;;8.18;1.95;;;;;;;17.04;73.08;100108.88;5115726;27;20478;-35
2022/08/18 04:09:10;;;;;;;8.35;2.28;;;;;;;17.06;72.88;100112.38;5121523;27;20514;-37
2022/08/18 04:11:42;;;;;;;9.13;2.20;;;;;;;17.07;72.92;100106.22;5088557;27;20051;-37
2022/08/18 04:14:12;;;;;;;12.38;2.72;;;;;;;17.10;72.51;100103.53;5116380;27;20510;-39
2022/08/18 04:16:39;;;;;;;13.90;2.38;;;;;;;17.09;72.67;100102.66;5080538;27;20056;-36
2022/08/18 04:19:07;;;;;;;8.52;1.90;;;;;;;17.08;72.62;100100.94;5118269;27;20510;-35
2022/08/18 04:21:37;;;;;;;9.95;2.35;;;;;;;17.12;72.42;100098.25;5108579;27;20642;-39
2022/08/18 04:24:04;;;;;;;6.85;2.05;;;;;;;17.08;72.72;100105.31;5097938;27;20044;-37
2022/08/18 04:26:36;;;;;;;6.03;2.17;;;;;;;17.06;72.85;100091.44;5110989;27;20043;-37
2022/08/18 04:29:05;;;;;;;9.10;2.25;;;;;;;17.02;73.30;100095.00;5109232;27;20048;-37
2022/08/18 04:31:31;;;;;;;7.20;2.28;;;;;;;16.97;73.09;100092.53;5097761;27;20051;-37
2022/08/18 04:34:00;;;;;;;12.13;2.17;;;;;;;16.90;73.95;100086.63;5124097;27;20054;-37
2022/08/18 04:36:29;;;;;;;7.85;2.58;;;;;;;16.88;73.42;100080.56;5111146;27;20534;-34
2022/08/18 04:38:56;;;;;;;10.30;2.35;;;;;;;16.78;74.79;100086.94;5125401;27;20055;-35
2022/08/18 04:41:26;;;;;;;13.82;2.28;;;;;;;16.78;74.93;100092.16;5104994;27;20043;-35
2022/08/18 04:43:56;;;;;;;17.17;2.55;;;;;;;16.77;73.77;100093.06;5114739;27;20051;-35
2022/08/18 04:46:24;;;;;;;5.63;2.22;;;;;;;16.76;74.00;100088.75;5097206;28;20132;-37
2022/08/18 04:48:57;;;;;;;9.05;2.30;;;;;;;16.74;74.53;100087.91;5120332;27;20050;-36
2022/08/18 04:51:28;;;;;;;8.18;1.88;;;;;;;16.75;74.89;100093.13;5123203;27;20400;-37
2022/08/18 04:54:14;;;;;;;6.05;1.90;;;;;;;16.73;74.11;100100.16;5107454;27;20093;-35
2022/08/18 04:56:42;;;;;;;12.90;1.73;;;;;;;16.75;74.56;100095.72;5113716;27;20059;-35
2022/08/18 04:59:11;;;;;;;7.47;2.53;;;;;;;16.77;74.71;100100.91;5111537;27;20055;-37
2022/08/18 05:01:41;;;;;;;7.20;1.67;;;;;;;16.77;74.48;100082.63;5094207;27;20043;-36
2022/08/18 05:04:08;;;;;;;11.10;1.92;;;;;;;16.80;74.36;100087.75;5113207;27;20136;-37
2022/08/18 05:06:36;;;;;;;10.15;1.83;;;;;;;16.85;74.10;100098.09;5112661;27;20050;-36
2022/08/18 05:09:06;;;;;;;11.95;1.85;;;;;;;16.89;74.26;100102.34;5102955;27;20048;-39
2022/08/18 05:11:33;;;;;;;5.82;1.65;;;;;;;16.90;73.69;100097.06;5115678;27;20047;-35
2022/08/18 05:14:04;;;;;;;7.88;1.80;;;;;;;16.93;74.27;100091.72;5090625;28;20048;-38
2022/08/18 05:16:34;;;;;;;12.32;1.80;;;;;;;16.95;74.32;100097.78;5094530;28;20089;-36
2022/08/18 05:19:06;;;;;;;9.65;1.63;;;;;;;16.99;74.15;100100.31;5102958;27;20873;-35
2022/08/18 05:21:35;;;;;;;7.18;1.83;;;;;;;17.03;73.84;100099.34;5085369;27;20043;-36
2022/08/18 05:24:04;;;;;;;11.80;2.13;;;;;;;17.05;73.32;100100.13;5111041;27;20051;-37
2022/08/18 05:26:31;;;;;;;7.20;1.52;;;;;;;17.06;73.76;100096.66;5117543;27;20051;-39
2022/08/18 05:28:58;;;;;;;7.05;1.90;;;;;;;17.08;73.26;100095.72;5108452;27;20116;-38
2022/08/18 05:31:45;;;;;;;10.02;2.53;;;;;;;17.09;73.39;100091.31;5091714;27;20043;-36
2022/08/18 05:34:11;;;;;;;10.25;1.58;;;;;;;17.11;74.38;100084.31;5116798;27;20047;-37
2022/08/18 05:36:57;;;;;;;10.60;1.90;;;;;;;17.11;73.56;100089.53;5111682;27;20071;-36
2022/08/18 05:39:29;;;;;;;8.65;1.60;;;;;;;17.15;73.90;100078.06;5105268;27;20062;-35
2022/08/18 05:44:39;;;;;;;12.00;1.85;;;;;;;17.19;73.37;100087.53;5043618;27;20409;-39
2022/08/18 05:49:44;;;;;;;7.25;3.28;;;;;;;17.24;73.11;100083.94;5044538;27;20401;-36
2022/08/18 05:52:17;;;;;;;17.55;2.42;;;;;;;17.24;73.10;100083.94;5030178;28;20557;-37
2022/08/18 05:57:50;;;;;;;7.47;2.65;;;;;;;17.23;73.47;100092.69;5039010;28;20037;-36
2022/08/18 06:00:21;;;;;;;10.13;3.22;;;;;;;17.23;73.33;100090.06;5019352;28;20054;-35
2022/08/18 06:05:34;;;;;;;3.88;1.90;;;;;;;17.25;73.54;100080.44;5058906;27;20843;-39
2022/08/18 06:08:07;;;;;;;4.22;1.65;;;;;;;17.26;73.75;100082.13;4982315;28;20050;-36
2022/08/18 06:10:38;;;;;;;9.68;2.28;;;;;;;17.29;73.66;100092.53;4985088;28;20469;-36
2022/08/18 06:13:08;;;;;;;9.05;1.70;;;;;;;17.30;73.57;100094.22;4982616;28;20046;-34
2022/08/18 06:26:49;;;;;;;10.32;2.15;;;;;;;17.43;73.80;100092.09;5057908;27;20404;-36
2022/08/18 06:29:33;;;;;;;16.70;2.25;;;;;;;17.45;73.93;100093.75;5016406;28;20050;-35
2022/08/18 06:32:27;;;;;;;14.18;2.33;;;;;;;17.43;73.64;100085.09;5014314;28;20048;-37
2022/08/18 06:40:27;;;;;;;10.15;3.03;;;;;;;17.44;73.61;100078.97;5058503;27;20412;-38
2022/08/18 06:42:54;;;;;;;19.77;4.32;;;;;;;17.47;74.17;100068.38;5058089;28;20052;-35
2022/08/18 06:45:34;;;;;;;15.23;3.13;;;;;;;17.46;73.56;100073.66;5088039;28;20049;-39
2022/08/18 06:48:17;;;;;;;14.82;3.15;;;;;;;17.44;73.60;100071.09;5055395;28;20044;-35
2022/08/18 06:50:52;;;;;;;10.27;2.95;;;;;;;17.50;74.29;100074.44;5052738;28;20119;-38
2022/08/18 06:53:19;;;;;;;11.20;3.97;;;;;;;17.55;73.72;100080.38;5056875;28;20726;-37
2022/08/18 06:55:53;;;;;;;15.88;3.50;;;;;;;17.57;74.57;100081.19;5053645;28;20045;-36
2022/08/18 06:58:26;;;;;;;9.23;2.67;;;;;;;17.61;74.13;100077.56;5089423;28;20048;-36
2022/08/18 07:01:00;;;;;;;10.90;2.70;;;;;;;17.65;73.95;100079.19;5051515;28;20053;-40
2022/08/18 07:09:34;;;;;;;18.45;5.10;;;;;;;17.66;73.92;100086.13;5026903;28;20408;-37
2022/08/18 07:20:00;;;;;;;19.02;3.42;;;;;;;17.76;73.96;100085.84;5058527;27;20426;-33
2022/08/18 07:22:27;;;;;;;;;;;;;;;17.64;74.85;100087.09;5028199;28;20050;-35
2022/08/18 07:25:05;;;;;;;13.25;3.90;;;;;;;17.78;74.59;100086.63;5024223;28;20427;-36
2022/08/18 07:27:47;;;;;;;17.25;4.15;;;;;;;17.80;74.28;100087.47;5023350;28;20045;-34
2022/08/18 07:30:36;;;;;;;12.75;3.45;;;;;;;17.80;74.23;100101.41;5039260;28;20041;-33
2022/08/18 08:33:46;;;;;;;17.88;6.47;;;;;;;19.04;73.79;100086.75;5008222;28;20899;-36
2022/08/18 08:36:22;;;;;;;18.02;6.68;;;;;;;19.05;73.62;100077.94;4983872;28;20049;-36
2022/08/18 08:38:54;;;;;;;15.95;6.43;;;;;;;19.07;73.63;100082.25;4994520;28;20105;-36
2022/08/18 08:44:12;;;;;;;18.23;6.93;;;;;;;19.17;73.33;100082.75;5098922;27;20412;-35
2022/08/18 08:46:46;;;;;;;18.70;7.65;;;;;;;19.25;73.45;100079.84;5055575;28;20057;-36
2022/08/18 08:49:37;;;;;;;15.35;7.47;;;;;;;19.29;73.82;100080.59;5053687;28;20397;-36
2022/08/18 08:52:13;;;;;;;14.70;7.25;;;;;;;19.39;73.12;100081.94;5068192;28;20045;-36
2022/08/18 08:57:31;;;;;;;13.43;5.88;;;;;;;19.55;72.80;100078.72;5015924;28;20718;-36
2022/08/18 09:00:02;;;;;;;16.67;6.40;;;;;;;19.60;72.81;100074.13;4984321;28;20514;-36
2022/08/18 09:08:25;;;;;;;15.32;6.50;;;;;;;19.84;72.46;100068.78;5007413;28;20926;-37
2022/08/18 09:22:02;;;;;;;15.00;6.18;;;;;;;19.82;71.55;100073.25;5074429;27;20490;-35
2022/08/18 09:24:38;;;;;;;19.58;7.47;;;;;;;19.85;71.43;100073.09;5052149;28;20056;-39
2022/08/18 09:27:34;;;;;;;19.67;6.60;;;;;;;19.81;71.52;100079.41;5087842;28;20088;-34
2022/08/18 09:36:06;;;;;;;12.80;5.63;;;;;;;19.98;71.48;100084.84;5024484;27;20411;-37
2022/08/18 09:41:44;;;;;;;17.60;6.53;;;;;;;20.07;71.16;100080.16;5051872;28;20397;-38
2022/08/18 10:00:31;;;;;;;15.40;6.38;;;;;;;20.67;70.88;100045.13;5102920;27;20417;-36
2022/08/18 10:05:35;;;;;;;13.65;5.43;;;;;;;21.03;70.88;100036.50;5057732;28;20392;-37
2022/08/18 10:21:49;;;;;;;8.07;3.47;;;;;;;22.52;68.73;100021.31;5033695;28;20386;-37
2022/08/18 10:45:34;;;;;;;6.10;4.40;;;;;;;24.65;61.30;100011.84;5025557;28;20406;-36
2022/08/18 10:50:57;;;;;;;7.57;5.38;;;;;;;24.93;60.17;100021.66;5049194;27;20394;-37
2022/08/18 10:58:50;;;;;;;4.53;3.08;;;;;;;25.47;58.86;100015.53;5025181;28;20817;-38
2022/08/18 11:04:25;;;;;;;8.82;4.68;;;;;;;25.51;58.27;100013.53;5075032;27;20403;-36
2022/08/18 11:07:07;;;;;;;8.95;5.80;;;;;;;25.39;57.48;100010.72;5062191;28;20071;-35
2022/08/18 11:09:36;;;;;;;7.25;5.53;;;;;;;25.33;57.89;100000.50;5061716;28;20052;-36
2022/08/18 11:12:11;;;;;;;8.02;5.25;;;;;;;25.41;57.78;100011.50;5076653;28;20044;-37
2022/08/18 11:23:01;;;;;;;7.78;3.47;;;;;;;25.61;55.58;100009.34;5053923;28;20415;-37
2022/08/18 11:25:32;;;;;;;7.88;3.60;;;;;;;25.61;55.74;100004.03;5038631;28;20050;-40
2022/08/18 11:27:59;;;;;;;6.07;3.88;;;;;;;25.58;55.06;99993.63;5012128;28;20548;-36
2022/08/18 11:30:33;;;;;;;5.78;3.13;;;;;;;25.44;54.92;99991.00;5018418;28;20053;-38
2022/08/18 11:33:02;;;;;;;7.68;3.70;;;;;;;25.35;55.51;99984.50;5002931;28;20049;-41
2022/08/18 11:35:33;;;;;;;6.10;3.88;;;;;;;25.36;55.57;99970.34;5013189;28;20473;-39
2022/08/18 11:38:03;;;;;;;8.18;4.45;;;;;;;25.37;55.11;99972.84;5015578;28;20053;-38
2022/08/18 11:40:40;;;;;;;7.32;3.90;;;;;;;25.30;54.81;99966.28;5007518;28;20133;-39
2022/08/18 11:43:36;;;;;;;6.03;2.95;;;;;;;25.29;55.17;99951.31;5005668;28;20053;-39
2022/08/18 11:46:16;;;;;;;8.52;4.07;;;;;;;25.31;55.20;99952.06;5024607;28;20108;-38
2022/08/18 11:48:53;;;;;;;7.45;3.85;;;;;;;25.39;55.53;99957.72;5013272;28;20056;-41
2022/08/18 11:51:26;;;;;;;6.70;3.40;;;;;;;25.51;55.30;99949.88;5017416;28;20125;-38
2022/08/18 11:53:59;;;;;;;8.10;4.25;;;;;;;25.63;55.50;99949.09;5017845;28;20429;-36
2022/08/18 11:56:30;;;;;;;8.60;3.88;;;;;;;25.78;55.74;99952.50;5013564;28;20062;-37
2022/08/18 11:59:06;;;;;;;7.90;3.88;;;;;;;26.02;56.31;99953.56;5008640;28;20045;-35
2022/08/18 12:12:28;;;;;;;7.38;4.47;;;;;;;26.98;49.56;99955.75;5074769;27;20392;-41
2022/08/18 12:17:32;;;;;;;4.57;3.03;;;;;;;26.81;50.33;99949.81;5057825;28;21183;-35
2022/08/18 12:20:01;;;;;;;5.13;2.88;;;;;;;26.81;50.72;99949.81;5024303;28;20045;-39
2022/08/18 12:22:30;;;;;;;4.55;2.90;;;;;;;26.87;51.40;99946.72;5022549;28;20445;-35
2022/08/18 12:24:58;;;;;;;6.25;3.08;;;;;;;26.99;51.52;99952.13;5017008;28;20594;-34
2022/08/18 12:27:27;;;;;;;7.30;3.20;;;;;;;27.04;50.56;99949.97;5016039;28;20062;-37
2022/08/18 12:29:59;;;;;;;6.10;3.20;;;;;;;26.98;50.43;99950.44;5013373;28;20517;-36
2022/08/18 12:32:29;;;;;;;5.05;2.90;;;;;;;26.87;50.66;99949.38;5019804;28;20073;-40
2022/08/18 12:35:15;;;;;;;5.97;2.97;;;;;;;26.75;50.51;99960.91;5020196;28;20568;-37
2022/08/18 12:38:02;;;;;;;5.53;2.83;;;;;;;26.59;49.76;99955.84;5021058;28;20085;-38
2022/08/18 12:40:40;;;;;;;4.50;3.15;;;;;;;26.42;50.07;99953.44;5020459;28;20493;-38
2022/08/18 12:43:07;;;;;;;5.50;2.80;;;;;;;26.35;50.42;99944.22;5022125;28;20048;-40
2022/08/18 12:45:34;;;;;;;5.57;3.13;;;;;;;26.41;51.29;99943.75;5034678;28;20066;-38
2022/08/18 12:48:21;;;;;;;6.55;2.83;;;;;;;26.55;51.11;99933.97;5016768;28;20050;-36
2022/08/18 12:50:49;;;;;;;5.93;3.13;;;;;;;26.71;50.79;99938.19;5016487;28;20071;-38
2022/08/18 12:53:25;;;;;;;4.60;3.10;;;;;;;26.82;50.72;99927.63;5020566;28;20104;-38
2022/08/18 12:56:15;;;;;;;4.97;2.53;;;;;;;26.95;49.95;99931.03;5023420;28;20053;-41
2022/08/18 12:58:45;;;;;;;7.68;3.45;;;;;;;27.11;50.06;99929.13;5012961;28;20056;-42
2022/08/18 13:01:11;;;;;;;5.07;2.78;;;;;;;27.17;49.81;99940.13;5020596;28;20057;-37
2022/08/18 13:03:44;;;;;;;5.97;3.55;;;;;;;27.20;49.81;99933.72;5016274;28;20460;-35
2022/08/18 13:06:34;;;;;;;7.25;2.75;;;;;;;27.24;48.76;99932.53;5019358;28;20058;-39
2022/08/18 13:09:01;;;;;;;3.90;2.40;;;;;;;27.13;47.58;99928.03;5018928;28;20046;-38
2022/08/18 13:11:41;;;;;;;6.07;2.60;;;;;;;27.14;49.06;99932.38;5022451;28;20065;-38
2022/08/18 13:14:08;;;;;;;5.85;2.75;;;;;;;27.24;48.90;99929.88;5022279;28;20161;-35
2022/08/18 13:16:38;;;;;;;5.22;2.85;;;;;;;27.32;49.03;99929.31;5017574;28;20440;-38
2022/08/18 13:19:20;;;;;;;4.72;3.15;;;;;;;27.40;49.12;99924.25;5007046;28;20046;-36
2022/08/18 13:21:47;;;;;;;5.20;3.08;;;;;;;27.52;48.91;99921.63;5022737;28;20049;-36
2022/08/18 13:24:15;;;;;;;3.50;2.63;;;;;;;27.59;49.20;99923.69;5014976;28;20049;-40
2022/08/18 13:26:48;;;;;;;5.07;2.65;;;;;;;27.71;48.51;99916.59;5021124;28;20053;-40
2022/08/18 13:29:18;;;;;;;4.05;2.50;;;;;;;27.84;47.82;99905.00;5006169;28;20136;-36
2022/08/18 13:31:45;;;;;;;4.60;2.50;;;;;;;27.98;47.31;99901.25;5010893;28;20046;-39
2022/08/18 13:34:24;;;;;;;6.60;3.05;;;;;;;28.10;46.74;99902.13;5005686;28;20130;-40
2022/08/18 13:36:50;;;;;;;5.10;2.72;;;;;;;28.10;46.25;99902.13;5007233;28;20088;-37
2022/08/18 13:39:21;;;;;;;4.38;3.15;;;;;;;28.08;45.98;99901.38;5008418;28;20469;-35
2022/08/18 13:41:51;;;;;;;6.80;2.90;;;;;;;27.97;45.80;99897.72;5004182;28;20064;-36
2022/08/18 13:44:21;;;;;;;4.15;2.70;;;;;;;27.92;45.48;99888.41;4992546;28;20057;-36
2022/08/18 13:46:54;;;;;;;6.35;3.20;;;;;;;27.85;45.39;99896.03;5006807;28;20113;-39
2022/08/18 13:49:23;;;;;;;4.75;2.70;;;;;;;27.82;45.51;99897.13;5008135;28;20057;-37
2022/08/18 13:51:58;;;;;;;5.65;3.00;;;;;;;27.77;45.77;99898.47;5004490;28;20050;-39
2022/08/18 13:54:32;;;;;;;7.13;3.35;;;;;;;27.74;44.66;99890.72;5009193;28;20045;-35
2022/08/18 13:57:01;;;;;;;4.15;3.35;;;;;;;27.73;45.66;99897.00;5007817;28;20433;-38
2022/08/18 13:59:31;;;;;;;4.38;3.20;;;;;;;27.76;45.60;99886.13;5009779;28;20058;-39
2022/08/18 14:02:01;;;;;;;6.97;3.63;;;;;;;27.81;45.01;99878.63;5007593;28;20065;-38
2022/08/18 14:04:28;;;;;;;5.45;3.00;;;;;;;27.84;45.47;99873.06;5003970;28;20523;-38
2022/08/18 14:06:55;;;;;;;6.20;4.30;;;;;;;27.79;45.23;99888.56;5008504;28;20433;-39
2022/08/18 14:09:28;;;;;;;7.75;3.60;;;;;;;27.84;44.99;99883.72;5006436;28;20517;-38
2022/08/18 14:12:06;;;;;;;5.43;3.15;;;;;;;27.81;44.76;99881.28;5003272;28;20069;-36
2022/08/18 14:14:51;;;;;;;4.75;3.15;;;;;;;27.73;44.46;99892.56;5008767;28;20665;-41
2022/08/18 14:17:20;;;;;;;5.00;3.15;;;;;;;27.61;45.24;99889.00;5005038;28;20507;-37
2022/08/18 14:28:27;;;;;;;5.88;3.58;;;;;;;27.26;45.46;99884.56;5007641;28;20061;-36
2022/08/18 14:30:55;;;;;;;9.05;3.35;;;;;;;27.24;45.85;99875.84;5006360;28;20046;-38
2022/08/18 14:33:24;;;;;;;6.13;3.38;;;;;;;27.14;45.13;99886.31;5007239;28;20065;-39
2022/08/18 14:36:11;;;;;;;;;;;;;;;26.91;46.11;99881.75;5005540;28;20053;-39
2022/08/18 14:38:39;;;;;;;7.82;4.18;;;;;;;27.06;45.44;99874.47;5007939;28;19952;-37
2022/08/18 14:41:09;;;;;;;5.10;3.42;;;;;;;27.04;45.33;99865.78;5007995;28;20578;-37
2022/08/18 14:43:39;;;;;;;6.93;4.05;;;;;;;27.05;45.29;99856.00;5007742;28;20465;-41
2022/08/18 14:46:26;;;;;;;5.95;3.45;;;;;;;27.02;45.75;99856.22;4993162;28;20064;-36
2022/08/18 14:48:56;;;;;;;7.22;3.30;;;;;;;26.98;45.16;99865.41;5004452;28;20046;-37
2022/08/18 14:51:25;;;;;;;6.63;3.53;;;;;;;26.91;45.81;99863.16;5006527;28;20498;-35
2022/08/18 14:53:53;;;;;;;6.00;3.47;;;;;;;26.82;44.81;99863.84;5006547;28;20116;-37
2022/08/18 14:56:21;;;;;;;5.32;3.63;;;;;;;26.78;45.23;99865.88;5006010;28;20054;-35
2022/08/18 14:58:49;;;;;;;6.28;2.70;;;;;;;26.80;45.22;99858.66;5007805;28;20398;-36
2022/08/18 15:01:17;;;;;;;7.47;3.50;;;;;;;26.90;45.13;99853.50;5006650;28;20046;-39
2022/08/18 15:03:43;;;;;;;6.03;3.33;;;;;;;26.95;45.19;99840.69;5003676;28;20050;-36
2022/08/18 15:06:10;;;;;;;7.13;3.22;;;;;;;26.97;45.72;99843.28;5003435;28;20070;-36
2022/08/18 15:08:48;;;;;;;6.60;3.78;;;;;;;26.94;45.83;99854.97;5006488;28;20079;-39
2022/08/18 15:11:15;;;;;;;6.47;3.60;;;;;;;26.94;45.67;99857.63;5000918;28;20206;-39
2022/08/18 15:13:44;;;;;;;6.70;3.58;;;;;;;26.90;45.78;99852.63;5007508;28;20094;-38
2022/08/18 15:16:14;;;;;;;8.63;3.85;;;;;;;26.87;45.62;99853.72;5001528;28;20092;-39
2022/08/18 15:18:42;;;;;;;6.57;3.53;;;;;;;26.81;45.97;99848.84;4999189;28;20485;-37
2022/08/18 15:26:54;;;;;;;6.00;2.65;;;;;;;26.99;46.10;99845.81;4990414;28;19921;-38
2022/08/18 15:29:28;;;;;;;7.22;3.38;;;;;;;27.01;46.10;99841.22;5006513;28;20147;-38
2022/08/18 15:31:57;;;;;;;7.93;3.88;;;;;;;26.95;45.88;99840.69;5004810;28;20096;-41
2022/08/18 15:34:32;;;;;;;7.05;2.90;;;;;;;26.88;45.53;99843.94;5004187;28;20097;-37
2022/08/18 15:37:13;;;;;;;4.72;2.95;;;;;;;26.80;46.19;99839.19;5003762;28;20045;-40
2022/08/18 15:39:40;;;;;;;4.25;2.47;;;;;;;26.78;46.42;99841.13;5008171;28;20497;-39
2022/08/18 15:42:10;;;;;;;6.35;2.80;;;;;;;26.76;45.95;99835.09;4999474;28;20054;-38
2022/08/18 15:44:36;;;;;;;4.78;3.17;;;;;;;26.71;46.35;99837.25;4985516;28;20109;-41
2022/08/18 15:47:04;;;;;;;6.07;3.00;;;;;;;26.68;46.26;99828.53;4999214;28;20043;-38
2022/08/18 15:49:35;;;;;;;7.75;3.55;;;;;;;26.64;46.53;99827.06;5000640;28;20571;-36
2022/08/18 15:52:01;;;;;;;6.82;3.38;;;;;;;26.62;46.08;99821.03;4998987;28;20108;-39
2022/08/18 15:54:28;;;;;;;5.55;3.72;;;;;;;26.61;46.62;99814.00;5001485;28;20046;-37